Wye River — WDE3583 — position and weather

sailwx.info

Track history (hours):
 
Tides and Currents Weather Stations Pressure Air Temp Water Temp Dewpoint Dewpoint Depression Visibility Wind Speed Wind Dir Waves Ship Positions

Wye River

Owner: Vane Line Bunkering, Inc., Baltimore, MD. More information available from US FCC via Universal Licensing System and Coast Guard Vessel Documentation Center.

Last reported at 2016-Aug-29 06:30 UTC. Time now 2016-Aug-30 13:11 UTC.
Position N 31°42' W 080°54'.

Length 30 m; draft 4.3 m.

Type: Tow > 200 m length. MMSI: 367341190.

Date/timePositionNaut miles runAvg speedWind from/ knotsBaromVisibWave heightAir tempDewpointWater temp
2016-Aug-29 06:30N 31°42' W 080°54'6 6.3
2016-Aug-29 05:29N 31°48' W 080°51'6 6.6
2016-Aug-29 04:33N 31°52' W 080°46'6 5.7
2016-Aug-29 03:33N 31°58' W 080°45'7 6.8
2016-Aug-29 02:33N 32°02' W 080°52'7 7.4
2016-Aug-29 01:33N 32°05' W 080°59'5 5.3
2016-Aug-29 00:33N 32°05' W 081°06'1 0.9
2016-Aug-28 23:33N 32°06' W 081°07'0 0.1
2016-Aug-28 22:33N 32°06' W 081°06'0 0.0
2016-Aug-28 21:33N 32°06' W 081°06'0 0.0
2016-Aug-28 20:33N 32°06' W 081°06'0 0.0
2016-Aug-28 19:33N 32°06' W 081°06'0 0.0
2016-Aug-28 18:33N 32°06' W 081°06'0 0.0
2016-Aug-28 17:33N 32°06' W 081°06'0 0.2
2016-Aug-28 16:33N 32°06' W 081°07'4 3.9
2016-Aug-28 15:33N 32°05' W 081°02'6 6.0
2016-Aug-28 14:33N 32°02' W 080°56'5 5.2
2016-Aug-28 13:33N 32°02' W 080°49'4 3.6
2016-Aug-28 12:33N 31°59' W 080°47'2 1.7
2016-Aug-28 11:33N 31°58' W 080°45'262 8.4
2016-Aug-27 04:20N 34°24' W 076°24'151 7.6
2016-Aug-26 08:33N 36°53' W 075°55'8 8.4
2016-Aug-26 07:33N 36°57' W 076°03'14 4.5
2016-Aug-26 04:33N 36°51' W 076°19'3 3.2
2016-Aug-26 03:33N 36°48' W 076°17'0 0.4
2016-Aug-26 02:33N 36°48' W 076°18'0 0.0
2016-Aug-26 01:33N 36°48' W 076°18'0 0.0
2016-Aug-26 00:33N 36°48' W 076°18'0 0.0
2016-Aug-25 23:34N 36°48' W 076°18'0 0.0
2016-Aug-25 22:33N 36°48' W 076°18'0 0.4
2016-Aug-25 21:33N 36°48' W 076°17'0 0.1
2016-Aug-25 20:33N 36°48' W 076°17'4 3.9
2016-Aug-25 19:32N 36°52' W 076°20'12 6.1
2016-Aug-25 17:32N 36°58' W 076°07'5 5.4
2016-Aug-25 16:33N 36°57' W 076°00'7 7.3
2016-Aug-25 15:33N 36°57' W 075°51'55 8.9
2016-Aug-25 09:27N 37°42' W 075°13'17 8.8
2016-Aug-25 07:31N 37°56' W 075°01'11 8.8
2016-Aug-25 06:15N 38°06' W 074°55'15 8.7
2016-Aug-25 04:32N 38°20' W 074°48'9 9.0
2016-Aug-25 03:32N 38°28' W 074°43'9 8.9
2016-Aug-25 02:34N 38°36' W 074°37'9 9.0
2016-Aug-25 01:33N 38°44' W 074°32'29 9.1
2016-Aug-24 22:22N 39°10' W 074°14'17 9.0
2016-Aug-24 20:30N 39°25' W 074°08'9 9.1
2016-Aug-24 19:33N 39°34' W 074°04'9 9.3
2016-Aug-24 18:33N 39°43' W 074°01'10 9.4
2016-Aug-24 17:28N 39°53' W 073°59'207 8.0
2016-Aug-23 15:25N 42°07' W 070°30'8 8.9
2016-Aug-23 14:33N 42°15' W 070°29'9 8.8
2016-Aug-23 13:33N 42°23' W 070°28'9 9.0
2016-Aug-23 12:34N 42°32' W 070°27'10 9.7
2016-Aug-23 11:33N 42°42' W 070°25'10 9.7
2016-Aug-23 10:32N 42°52' W 070°24'9 9.3
2016-Aug-23 09:33N 43°01' W 070°23'8 0.4
2016-Aug-22 12:23N 42°54' W 070°27'7 8.9
2016-Aug-22 11:34N 42°46' W 070°29'9 8.8
2016-Aug-22 10:33N 42°38' W 070°30'9 8.9
2016-Aug-22 09:33N 42°29' W 070°31'9 8.8
2016-Aug-22 08:33N 42°20' W 070°32'9 8.7
2016-Aug-22 07:32N 42°11' W 070°31'103 5.6
2016-Aug-21 13:14N 41°11' W 072°22'73 3.5
2016-Aug-20 16:33N 40°48' W 073°54'7 7.5
2016-Aug-20 15:33N 40°42' W 073°60'3 2.6
2016-Aug-20 14:33N 40°40' W 074°02'0 0.0
2016-Aug-20 13:33N 40°40' W 074°02'0 0.0
2016-Aug-20 12:33N 40°40' W 074°02'0 0.0
2016-Aug-20 11:33N 40°40' W 074°02'0 0.1
2016-Aug-20 10:33N 40°40' W 074°02'0 0.1
2016-Aug-20 09:33N 40°40' W 074°02'0 0.0
2016-Aug-20 08:33N 40°40' W 074°02'0 0.0
2016-Aug-20 07:34N 40°40' W 074°02'0 0.0
2016-Aug-20 06:33N 40°40' W 074°02'0 0.0
2016-Aug-20 05:33N 40°40' W 074°02'0 0.0
2016-Aug-20 04:33N 40°40' W 074°02'0 0.2
2016-Aug-20 03:33N 40°40' W 074°02'0 0.0
2016-Aug-20 02:33N 40°40' W 074°02'0 0.1
2016-Aug-20 01:33N 40°40' W 074°02'6 6.4
2016-Aug-20 00:33N 40°46' W 074°00'  
Track history (hours):
 
Tides and Currents Weather Stations Pressure Air Temp Water Temp Dewpoint Dewpoint Depression Visibility Wind Speed Wind Dir Waves Ship Positions

Wye River

Owner: Vane Line Bunkering, Inc., Baltimore, MD. More information available from US FCC via Universal Licensing System and Coast Guard Vessel Documentation Center.

Last reported at 2016-Aug-29 06:30 UTC. Time now 2016-Aug-30 13:11 UTC.
Position N 31°42' W 080°54'.

Length 30 m; draft 4.3 m.

Type: Tow > 200 m length. MMSI: 367341190.

Date/timePositionNaut miles runAvg speedWind from/ knotsBaromVisibWave heightAir tempDewpointWater temp
2016-Aug-29 06:30N 31°42' W 080°54'6 6.3
2016-Aug-29 05:29N 31°48' W 080°51'6 6.6
2016-Aug-29 04:33N 31°52' W 080°46'6 5.7
2016-Aug-29 03:33N 31°58' W 080°45'7 6.8
2016-Aug-29 02:33N 32°02' W 080°52'7 7.4
2016-Aug-29 01:33N 32°05' W 080°59'5 5.3
2016-Aug-29 00:33N 32°05' W 081°06'1 0.9
2016-Aug-28 23:33N 32°06' W 081°07'0 0.1
2016-Aug-28 22:33N 32°06' W 081°06'0 0.0
2016-Aug-28 21:33N 32°06' W 081°06'0 0.0
2016-Aug-28 20:33N 32°06' W 081°06'0 0.0
2016-Aug-28 19:33N 32°06' W 081°06'0 0.0
2016-Aug-28 18:33N 32°06' W 081°06'0 0.0
2016-Aug-28 17:33N 32°06' W 081°06'0 0.2
2016-Aug-28 16:33N 32°06' W 081°07'4 3.9
2016-Aug-28 15:33N 32°05' W 081°02'6 6.0
2016-Aug-28 14:33N 32°02' W 080°56'5 5.2
2016-Aug-28 13:33N 32°02' W 080°49'4 3.6
2016-Aug-28 12:33N 31°59' W 080°47'2 1.7
2016-Aug-28 11:33N 31°58' W 080°45'262 8.4
2016-Aug-27 04:20N 34°24' W 076°24'151 7.6
2016-Aug-26 08:33N 36°53' W 075°55'8 8.4
2016-Aug-26 07:33N 36°57' W 076°03'14 4.5
2016-Aug-26 04:33N 36°51' W 076°19'3 3.2
2016-Aug-26 03:33N 36°48' W 076°17'0 0.4
2016-Aug-26 02:33N 36°48' W 076°18'0 0.0
2016-Aug-26 01:33N 36°48' W 076°18'0 0.0
2016-Aug-26 00:33N 36°48' W 076°18'0 0.0
2016-Aug-25 23:34N 36°48' W 076°18'0 0.0
2016-Aug-25 22:33N 36°48' W 076°18'0 0.4
2016-Aug-25 21:33N 36°48' W 076°17'0 0.1
2016-Aug-25 20:33N 36°48' W 076°17'4 3.9
2016-Aug-25 19:32N 36°52' W 076°20'12 6.1
2016-Aug-25 17:32N 36°58' W 076°07'5 5.4
2016-Aug-25 16:33N 36°57' W 076°00'7 7.3
2016-Aug-25 15:33N 36°57' W 075°51'55 8.9
2016-Aug-25 09:27N 37°42' W 075°13'17 8.8
2016-Aug-25 07:31N 37°56' W 075°01'11 8.8
2016-Aug-25 06:15N 38°06' W 074°55'15 8.7
2016-Aug-25 04:32N 38°20' W 074°48'9 9.0
2016-Aug-25 03:32N 38°28' W 074°43'9 8.9
2016-Aug-25 02:34N 38°36' W 074°37'9 9.0
2016-Aug-25 01:33N 38°44' W 074°32'29 9.1
2016-Aug-24 22:22N 39°10' W 074°14'17 9.0
2016-Aug-24 20:30N 39°25' W 074°08'9 9.1
2016-Aug-24 19:33N 39°34' W 074°04'9 9.3
2016-Aug-24 18:33N 39°43' W 074°01'10 9.4
2016-Aug-24 17:28N 39°53' W 073°59'207 8.0
2016-Aug-23 15:25N 42°07' W 070°30'8 8.9
2016-Aug-23 14:33N 42°15' W 070°29'9 8.8
2016-Aug-23 13:33N 42°23' W 070°28'9 9.0
2016-Aug-23 12:34N 42°32' W 070°27'10 9.7
2016-Aug-23 11:33N 42°42' W 070°25'10 9.7
2016-Aug-23 10:32N 42°52' W 070°24'9 9.3
2016-Aug-23 09:33N 43°01' W 070°23'8 0.4
2016-Aug-22 12:23N 42°54' W 070°27'7 8.9
2016-Aug-22 11:34N 42°46' W 070°29'9 8.8
2016-Aug-22 10:33N 42°38' W 070°30'9 8.9
2016-Aug-22 09:33N 42°29' W 070°31'9 8.8
2016-Aug-22 08:33N 42°20' W 070°32'9 8.7
2016-Aug-22 07:32N 42°11' W 070°31'103 5.6
2016-Aug-21 13:14N 41°11' W 072°22'73 3.5
2016-Aug-20 16:33N 40°48' W 073°54'7 7.5
2016-Aug-20 15:33N 40°42' W 073°60'3 2.6
2016-Aug-20 14:33N 40°40' W 074°02'0 0.0
2016-Aug-20 13:33N 40°40' W 074°02'0 0.0
2016-Aug-20 12:33N 40°40' W 074°02'0 0.0
2016-Aug-20 11:33N 40°40' W 074°02'0 0.1
2016-Aug-20 10:33N 40°40' W 074°02'0 0.1
2016-Aug-20 09:33N 40°40' W 074°02'0 0.0
2016-Aug-20 08:33N 40°40' W 074°02'0 0.0
2016-Aug-20 07:34N 40°40' W 074°02'0 0.0
2016-Aug-20 06:33N 40°40' W 074°02'0 0.0
2016-Aug-20 05:33N 40°40' W 074°02'0 0.0
2016-Aug-20 04:33N 40°40' W 074°02'0 0.2
2016-Aug-20 03:33N 40°40' W 074°02'0 0.0
2016-Aug-20 02:33N 40°40' W 074°02'0 0.1
2016-Aug-20 01:33N 40°40' W 074°02'6 6.4
2016-Aug-20 00:33N 40°46' W 074°00'  

Dump ship's entire track history